createdAt,value
2018-02-08T00:01:11.959Z,73.17
2018-02-08T00:03:39.419Z,74.27
2018-02-08T00:06:06.859Z,79.03
2018-02-08T00:08:34.307Z,82.43
2018-02-08T00:11:01.747Z,81.97
2018-02-08T00:13:29.196Z,71.23
2018-02-08T00:15:56.636Z,79.27
2018-02-08T00:18:24.083Z,86.37
2018-02-08T00:20:51.532Z,67.07
2018-02-08T00:23:19.743Z,76.80
2018-02-08T00:25:47.179Z,76.60
2018-02-08T00:28:14.631Z,86.27
2018-02-08T00:30:42.068Z,75.80
2018-02-08T00:33:10.278Z,76.70
2018-02-08T00:35:37.720Z,80.10
2018-02-08T00:38:05.159Z,84.03
2018-02-08T00:40:32.599Z,71.17
2018-02-08T00:43:00.812Z,82.23
2018-02-08T00:45:29.015Z,85.20
2018-02-08T00:47:56.462Z,66.07
2018-02-08T00:50:23.891Z,77.90
2018-02-08T00:52:51.343Z,62.20
2018-02-08T00:55:19.543Z,71.77
2018-02-08T00:57:48.695Z,75.13
2018-02-08T01:00:16.137Z,75.73
2018-02-08T01:02:44.348Z,67.30
2018-02-08T01:05:12.551Z,77.20
2018-02-08T01:07:40.764Z,72.07
2018-02-08T01:10:08.208Z,66.40
2018-02-08T01:12:35.643Z,70.37
2018-02-08T01:15:03.084Z,69.93
2018-02-08T01:17:31.287Z,72.90
2018-02-08T01:19:59.499Z,69.60
2018-02-08T01:22:26.940Z,69.67
2018-02-08T01:24:54.384Z,65.60
2018-02-08T01:27:21.823Z,83.60
2018-02-08T01:29:49.272Z,75.93
2018-02-08T01:32:16.712Z,69.23
2018-02-08T01:34:44.164Z,66.23
2018-02-08T01:37:12.371Z,66.27
2018-02-08T01:39:39.815Z,73.50
2018-02-08T01:42:07.250Z,63.47
2018-02-08T01:44:34.700Z,62.63
2018-02-08T01:47:02.904Z,72.53
2018-02-08T01:49:46.955Z,76.37
2018-02-08T01:52:14.391Z,80.10
2018-02-08T01:54:41.840Z,73.97
2018-02-08T01:57:09.282Z,73.53
2018-02-08T01:59:36.783Z,71.03
2018-02-08T02:02:04.172Z,73.03
2018-02-08T02:04:32.397Z,83.00
2018-02-08T02:06:59.831Z,71.90
2018-02-08T02:09:27.303Z,68.50
2018-02-08T02:11:54.712Z,70.93
2018-02-08T02:14:22.924Z,69.63
2018-02-08T02:16:50.367Z,81.47
2018-02-08T02:19:17.811Z,81.93
2018-02-08T02:21:45.251Z,90.83
2018-02-08T02:24:13.463Z,61.13
2018-02-08T02:26:40.899Z,76.17
2018-02-08T02:29:08.344Z,71.33
2018-02-08T02:31:35.780Z,80.57
2018-02-08T02:34:04.076Z,72.40
2018-02-08T02:36:31.512Z,76.30
2018-02-08T02:38:58.962Z,67.60
2018-02-08T02:41:27.167Z,75.77
2018-02-08T02:43:54.612Z,76.47
2018-02-08T02:46:22.043Z,63.90
2018-02-08T02:48:49.496Z,62.73
2018-02-08T02:51:17.696Z,61.93
2018-02-08T02:53:45.918Z,70.53
2018-02-08T02:56:13.347Z,67.80
2018-02-08T02:58:40.832Z,75.27
2018-02-08T03:01:08.223Z,67.40
2018-02-08T03:03:36.438Z,70.17
2018-02-08T03:06:03.875Z,63.30
2018-02-08T03:08:31.319Z,79.90
2018-02-08T03:10:58.763Z,65.73
2018-02-08T03:13:26.955Z,73.20
2018-02-08T03:15:55.162Z,63.83
2018-02-08T03:18:23.362Z,72.40
2018-02-08T03:20:51.569Z,69.33
2018-02-08T03:23:19.770Z,59.57
2018-02-08T03:25:47.975Z,70.07
2018-02-08T03:28:15.410Z,76.37
2018-02-08T03:30:43.416Z,73.70
2018-02-08T03:33:10.842Z,68.60
2018-02-08T03:35:38.282Z,57.10
2018-02-08T03:38:05.719Z,68.87
2018-02-08T03:40:33.162Z,71.77
2018-02-08T03:43:01.535Z,80.68
2018-02-08T03:45:28.975Z,82.53
2018-02-08T03:47:56.406Z,70.83
2018-02-08T03:50:24.611Z,62.97
2018-02-08T03:52:52.814Z,80.17
2018-02-08T03:55:21.022Z,73.33
2018-02-08T03:57:49.228Z,64.17
2018-02-08T04:00:16.666Z,75.63
2018-02-08T04:02:44.102Z,74.50
2018-02-08T04:05:11.546Z,72.63
2018-02-08T04:07:39.751Z,73.37
2018-02-08T04:10:07.958Z,85.00
2018-02-08T04:12:36.162Z,75.10
2018-02-08T04:15:03.639Z,62.10
2018-02-08T04:17:31.078Z,73.97
2018-02-08T04:19:58.523Z,68.47
2018-02-08T04:22:25.957Z,72.00
2018-02-08T04:24:53.418Z,73.43
2018-02-08T04:27:20.857Z,71.40
2018-02-08T04:29:48.301Z,62.83
2018-02-08T04:32:15.751Z,82.55
2018-02-08T04:34:43.183Z,85.25
2018-02-08T04:37:10.623Z,86.00
2018-02-08T04:39:49.992Z,81.87
2018-02-08T04:42:29.451Z,92.50
2018-02-08T04:45:08.835Z,89.95
2018-02-08T04:47:57.635Z,80.68
2018-02-08T04:50:25.066Z,86.40
2018-02-08T04:52:52.506Z,91.82
2018-02-08T04:55:19.938Z,79.40
2018-02-08T04:57:47.386Z,69.87
2018-02-08T05:00:14.822Z,63.43
2018-02-08T05:02:42.254Z,68.10
2018-02-08T05:05:09.699Z,86.97
2018-02-08T05:07:37.146Z,84.00
2018-02-08T05:10:04.639Z,86.93
2018-02-08T05:12:32.079Z,89.25
2018-02-08T05:14:59.519Z,90.87
2018-02-08T05:17:27.727Z,75.93
2018-02-08T05:19:55.168Z,85.53
2018-02-08T05:22:22.600Z,91.10
2018-02-08T05:24:50.054Z,89.75
2018-02-08T05:27:18.250Z,82.80
2018-02-08T05:29:46.455Z,99.75
2018-02-08T05:32:14.655Z,84.53
2018-02-08T05:34:42.862Z,82.88
2018-02-08T05:37:10.303Z,80.95
2018-02-08T05:39:37.755Z,83.40
2018-02-08T05:42:05.176Z,81.70
2018-02-08T05:44:32.634Z,79.40
2018-02-08T05:47:00.067Z,77.57
2018-02-08T05:49:27.511Z,84.40
2018-02-08T05:51:54.955Z,81.47
2018-02-08T05:54:22.390Z,77.30
2018-02-08T05:56:50.603Z,76.07
2018-02-08T05:59:18.035Z,74.55
2018-02-08T06:01:45.478Z,88.25
2018-02-08T06:04:12.919Z,86.43
2018-02-08T06:06:40.358Z,92.93
2018-02-08T06:09:07.799Z,83.47
2018-02-08T06:11:35.244Z,89.53
2018-02-08T06:14:02.682Z,87.95
2018-02-08T06:16:30.143Z,84.07
2018-02-08T06:18:58.352Z,85.12
2018-02-08T06:21:25.810Z,83.47
2018-02-08T06:23:54.012Z,81.37
2018-02-08T06:26:22.224Z,85.60
2018-02-08T06:28:49.654Z,77.68
2018-02-08T06:31:17.104Z,83.40
2018-02-08T06:33:44.556Z,91.07
2018-02-08T06:36:12.754Z,78.45
2018-02-08T06:38:40.962Z,82.85
2018-02-08T06:41:08.394Z,85.30
2018-02-08T06:43:35.838Z,84.15
2018-02-08T06:46:03.293Z,83.00
2018-02-08T06:48:30.722Z,83.93
2018-02-08T06:50:58.167Z,85.93
2018-02-08T06:53:25.602Z,86.63
2018-02-08T06:55:53.035Z,79.93
2018-02-08T06:58:20.474Z,79.43
2018-02-08T07:00:47.914Z,88.75
2018-02-08T07:03:15.360Z,83.40
2018-02-08T07:05:43.568Z,82.10
2018-02-08T07:08:11.010Z,90.10
2018-02-08T07:10:38.442Z,86.00
2018-02-08T07:13:05.894Z,87.63
2018-02-08T07:15:34.095Z,83.05
2018-02-08T07:18:02.319Z,78.97
2018-02-08T07:20:29.758Z,84.45
2018-02-08T07:22:57.200Z,76.70
2018-02-08T07:25:24.633Z,78.05
2018-02-08T07:27:52.074Z,81.00
2018-02-08T07:30:19.520Z,85.62
2018-02-08T07:32:46.951Z,78.50
2018-02-08T07:35:16.130Z,78.32
2018-02-08T07:37:43.595Z,84.13
2018-02-08T07:40:11.035Z,77.40
2018-02-08T07:42:38.466Z,84.47
2018-02-08T07:45:06.319Z,88.85
2018-02-08T07:47:34.531Z,86.00
2018-02-08T07:50:02.732Z,89.22
2018-02-08T07:52:30.946Z,87.07
2018-02-08T07:54:58.383Z,82.85
2018-02-08T07:57:25.840Z,84.07
2018-02-08T07:59:53.283Z,85.25
2018-02-08T08:02:21.478Z,70.50
2018-02-08T08:04:49.714Z,86.05
2018-02-08T08:07:17.155Z,79.10
2018-02-08T08:09:45.366Z,75.40
2018-02-08T08:12:13.575Z,77.70
2018-02-08T08:14:41.786Z,80.73
2018-02-08T08:17:09.984Z,75.93
2018-02-08T08:19:38.191Z,65.60
2018-02-08T08:22:05.618Z,64.60
2018-02-08T08:24:33.059Z,69.70
2018-02-08T08:27:00.495Z,67.20
2018-02-08T08:29:27.931Z,63.93
2018-02-08T08:31:55.363Z,68.40
2018-02-08T08:34:22.803Z,69.20
2018-02-08T08:36:50.230Z,63.20
2018-02-08T08:39:17.672Z,58.60
2018-02-08T08:41:45.102Z,59.23
2018-02-08T08:44:13.311Z,71.50
2018-02-08T08:46:41.514Z,72.40
2018-02-08T08:49:09.712Z,64.07
2018-02-08T08:51:37.147Z,62.70
2018-02-08T08:54:04.586Z,63.93
2018-02-08T08:56:32.023Z,63.47
2018-02-08T08:58:59.467Z,70.83
2018-02-08T09:01:26.898Z,58.97
2018-02-08T09:03:54.330Z,65.67
2018-02-08T09:06:21.776Z,71.00
2018-02-08T09:08:49.207Z,69.37
2018-02-08T09:11:16.641Z,62.67
2018-02-08T09:13:44.102Z,64.07
2018-02-08T09:16:11.543Z,78.03
2018-02-08T09:18:38.973Z,69.77
2018-02-08T09:21:06.406Z,59.37
2018-02-08T09:23:33.844Z,60.57
2018-02-08T09:26:01.287Z,69.45
2018-02-08T09:28:28.718Z,72.22
2018-02-08T09:30:56.923Z,70.47
2018-02-08T09:33:25.120Z,74.05
2018-02-08T09:35:53.334Z,72.35
2018-02-08T09:38:21.542Z,68.20
2018-02-08T09:40:49.759Z,76.68
2018-02-08T09:43:17.198Z,74.10
2018-02-08T09:45:44.646Z,73.07
2018-02-08T09:48:12.074Z,78.43
2018-02-08T09:50:39.518Z,80.67
2018-02-08T09:53:06.971Z,72.37
2018-02-08T09:55:35.171Z,66.40
2018-02-08T09:58:03.371Z,77.30
2018-02-08T10:00:31.621Z,72.00
2018-02-08T10:02:59.774Z,61.27
2018-02-08T10:05:27.983Z,62.27
2018-02-08T10:07:56.178Z,62.30
2018-02-08T10:10:24.387Z,66.47
2018-02-08T10:12:52.591Z,63.67
2018-02-08T10:15:20.804Z,68.77
2018-02-08T10:17:49.008Z,67.30
2018-02-08T10:20:17.219Z,70.07
2018-02-08T10:22:44.654Z,62.50
2018-02-08T10:25:12.090Z,66.60
2018-02-08T10:27:39.559Z,84.80
2018-02-08T10:30:07.758Z,70.77
2018-02-08T10:32:35.194Z,75.90
2018-02-08T10:35:02.639Z,68.73
2018-02-08T10:37:30.067Z,73.53
2018-02-08T10:39:57.503Z,70.33
2018-02-08T10:42:24.982Z,67.60
2018-02-08T10:44:52.379Z,68.27
2018-02-08T10:47:19.827Z,82.57
2018-02-08T10:49:48.032Z,73.27
2018-02-08T10:52:15.480Z,77.27
2018-02-08T10:54:42.914Z,77.47
2018-02-08T10:57:10.342Z,71.80
2018-02-08T10:59:37.774Z,81.70
2018-02-08T11:02:05.218Z,75.97
2018-02-08T11:04:32.654Z,70.93
2018-02-08T11:07:00.091Z,74.43
2018-02-08T11:09:28.290Z,77.27
2018-02-08T11:11:56.503Z,71.53
2018-02-08T11:14:24.746Z,72.60
2018-02-08T11:16:52.194Z,84.40
2018-02-08T11:19:19.626Z,73.20
2018-02-08T11:21:47.066Z,73.60
2018-02-08T11:24:14.502Z,74.80
2018-02-08T11:26:41.999Z,74.43
2018-02-08T11:29:09.411Z,88.40
2018-02-08T11:31:37.618Z,82.37
2018-02-08T11:34:05.823Z,71.93
2018-02-08T11:36:33.275Z,83.23
2018-02-08T11:39:00.706Z,82.73
2018-02-08T11:41:28.139Z,79.83
2018-02-08T11:43:55.579Z,71.63
2018-02-08T11:46:23.011Z,94.57
2018-02-08T11:48:50.451Z,89.10
2018-02-08T11:51:17.882Z,81.50
2018-02-08T11:53:45.322Z,81.67
2018-02-08T11:56:12.766Z,77.90
2018-02-08T11:58:40.202Z,80.80
2018-02-08T12:01:07.635Z,73.60
2018-02-08T12:03:35.074Z,81.60
2018-02-08T12:06:02.510Z,74.40
2018-02-08T12:08:29.948Z,76.23
2018-02-08T12:10:57.377Z,88.67
2018-02-08T12:13:24.830Z,73.33
2018-02-08T12:15:53.027Z,76.70
2018-02-08T12:18:21.227Z,82.90
2018-02-08T12:20:49.428Z,78.10
2018-02-08T12:23:17.631Z,68.97
2018-02-08T12:25:45.062Z,73.50
2018-02-08T12:28:12.502Z,65.93
2018-02-08T12:30:39.935Z,76.53
2018-02-08T12:33:07.383Z,65.30
2018-02-08T12:35:34.815Z,76.47
2018-02-08T12:38:03.027Z,83.83
2018-02-08T12:40:31.222Z,81.10
2018-02-08T12:42:59.426Z,73.20
2018-02-08T12:45:27.640Z,78.23
2018-02-08T12:47:55.062Z,76.93
2018-02-08T12:50:22.503Z,71.17
2018-02-08T12:52:49.935Z,70.93
2018-02-08T12:55:17.375Z,80.87
2018-02-08T12:57:44.810Z,74.33
2018-02-08T13:00:13.626Z,69.47
2018-02-08T13:02:41.819Z,68.97
2018-02-08T13:05:10.029Z,68.47
2018-02-08T13:07:38.226Z,76.17
2018-02-08T13:10:06.431Z,62.70
2018-02-08T13:12:34.631Z,77.27
2018-02-08T13:15:02.842Z,72.53
2018-02-08T13:17:30.276Z,78.90
2018-02-08T13:19:57.718Z,75.23
2018-02-08T13:22:25.163Z,70.67
2018-02-08T13:24:53.375Z,71.27
2018-02-08T13:27:21.570Z,77.80
2018-02-08T13:29:49.777Z,75.13
2018-02-08T13:32:17.971Z,75.13
2018-02-08T13:34:45.414Z,65.30
2018-02-08T13:37:12.850Z,65.07
2018-02-08T13:39:43.913Z,67.47
2018-02-08T13:42:12.585Z,54.60
2018-02-08T13:44:40.028Z,51.93
2018-02-08T13:50:18.727Z,62.93
2018-02-08T13:52:55.554Z,55.67
2018-02-08T13:55:28.757Z,51.27
2018-02-08T13:57:59.419Z,48.37
2018-02-08T14:00:33.358Z,50.40
2018-02-08T14:03:00.801Z,51.60
2018-02-08T14:05:28.235Z,47.77
2018-02-08T14:07:55.670Z,53.77
2018-02-08T14:10:23.111Z,55.00
2018-02-08T14:12:50.546Z,48.80
2018-02-08T14:15:17.982Z,45.50
2018-02-08T14:17:45.415Z,46.17
2018-02-08T14:20:14.287Z,50.13
2018-02-08T14:22:41.727Z,50.70
2018-02-08T14:25:09.935Z,48.83
2018-02-08T14:27:38.131Z,53.83
2018-02-08T14:30:06.339Z,51.30
2018-02-08T14:32:33.766Z,54.50
2018-02-08T14:35:01.212Z,48.03
2018-02-08T14:37:28.639Z,40.70
2018-02-08T14:39:56.093Z,45.30
2018-02-08T14:42:23.523Z,45.43
2018-02-08T14:44:50.966Z,53.93
2018-02-08T14:47:18.403Z,41.77
2018-02-08T14:49:45.839Z,40.77
2018-02-08T14:52:13.279Z,43.90
2018-02-08T14:54:40.710Z,53.03
2018-02-08T14:57:08.159Z,47.97
2018-02-08T14:59:35.591Z,44.90
2018-02-08T15:02:03.039Z,54.67
2018-02-08T15:04:30.470Z,45.53
2018-02-08T15:06:57.910Z,48.43
2018-02-08T15:09:25.347Z,53.27
2018-02-08T15:11:53.555Z,51.70
2018-02-08T15:14:21.754Z,50.93
2018-02-08T15:16:49.996Z,53.93
2018-02-08T15:19:17.427Z,54.43
2018-02-08T15:21:45.631Z,52.27
2018-02-08T15:24:13.064Z,52.80
2018-02-08T15:26:40.507Z,55.07
2018-02-08T15:29:07.947Z,56.00
2018-02-08T15:31:35.379Z,58.40
2018-02-08T15:34:02.816Z,52.77
2018-02-08T15:36:30.254Z,50.73
2018-02-08T15:38:57.689Z,57.70
2018-02-08T15:41:25.144Z,51.73
2018-02-08T15:43:52.575Z,51.77
2018-02-08T15:46:20.018Z,53.80
2018-02-08T15:48:47.447Z,64.10
2018-02-08T15:51:14.896Z,53.13
2018-02-08T15:53:42.335Z,57.37
2018-02-08T15:56:10.531Z,56.37
2018-02-08T15:58:37.975Z,51.93
2018-02-08T16:01:05.406Z,52.53
2018-02-08T16:03:32.847Z,59.20
2018-02-08T16:06:00.278Z,61.33
2018-02-08T16:08:27.723Z,55.17
2018-02-08T16:10:55.157Z,62.07
2018-02-08T16:13:22.605Z,62.27
2018-02-08T16:15:50.802Z,59.87
2018-02-08T16:18:19.015Z,70.80
2018-02-08T16:20:46.452Z,54.80
2018-02-08T16:23:14.251Z,66.67
2018-02-08T16:25:41.687Z,70.57
2018-02-08T16:28:09.119Z,61.37
2018-02-08T16:30:36.554Z,60.83
2018-02-08T16:33:03.991Z,70.50
2018-02-08T16:35:31.428Z,66.53
2018-02-08T16:37:58.876Z,65.07
2018-02-08T16:40:27.087Z,64.53
2018-02-08T16:42:55.296Z,68.93
2018-02-08T16:45:23.647Z,60.90
2018-02-08T16:47:51.082Z,72.67
2018-02-08T16:50:19.282Z,61.90
2018-02-08T16:52:47.509Z,63.73
2018-02-08T16:55:14.939Z,65.07
2018-02-08T16:57:42.392Z,62.53
2018-02-08T17:00:09.822Z,56.67
2018-02-08T17:02:38.032Z,59.37
2018-02-08T17:05:06.227Z,62.90
2018-02-08T17:07:34.431Z,68.90
2018-02-08T17:10:02.635Z,59.40
2018-02-08T17:12:30.070Z,58.73
2018-02-08T17:14:57.503Z,63.30
2018-02-08T17:17:24.957Z,58.97
2018-02-08T17:19:53.163Z,62.97
2018-02-08T17:22:21.375Z,53.57
2018-02-08T17:24:48.811Z,62.77
2018-02-08T17:27:16.258Z,65.33
2018-02-08T17:29:43.690Z,69.63
2018-02-08T17:32:11.899Z,55.77
2018-02-08T17:34:40.099Z,71.90
2018-02-08T17:37:08.306Z,68.20
2018-02-08T17:39:35.738Z,64.60
2018-02-08T17:42:03.171Z,67.20
2018-02-08T17:44:30.607Z,65.00
2018-02-08T17:46:58.048Z,63.73
2018-02-08T17:49:25.495Z,60.20
2018-02-08T17:51:53.695Z,75.63
2018-02-08T17:54:21.899Z,69.83
2018-02-08T17:56:50.107Z,68.30
2018-02-08T17:59:17.555Z,77.37
2018-02-08T18:01:44.990Z,76.00
2018-02-08T18:04:12.430Z,81.30
2018-02-08T18:06:40.630Z,69.27
2018-02-08T18:09:08.843Z,78.53
2018-02-08T18:11:37.039Z,68.27
2018-02-08T18:14:04.479Z,62.80
2018-02-08T18:16:31.918Z,70.60
2018-02-08T18:18:59.365Z,58.33
2018-02-08T18:21:26.806Z,68.27
2018-02-08T18:23:54.247Z,63.83
2018-02-08T18:26:21.679Z,65.33
2018-02-08T18:28:49.123Z,64.40
2018-02-08T18:31:16.815Z,62.90
2018-02-08T18:33:44.255Z,68.10
2018-02-08T18:36:12.463Z,64.10
2018-02-08T18:38:40.675Z,61.03
2018-02-08T18:41:08.111Z,59.00
2018-02-08T18:43:35.551Z,64.03
2018-02-08T18:46:02.990Z,71.37
2018-02-08T18:48:30.431Z,58.50
2018-02-08T18:50:57.872Z,63.03
2018-02-08T18:53:26.136Z,52.83
2018-02-08T18:55:53.534Z,57.37
2018-02-08T18:58:21.727Z,58.20
2018-02-08T19:00:49.939Z,66.13
2018-02-08T19:03:18.140Z,57.20
2018-02-08T19:05:46.347Z,57.30
2018-02-08T19:08:13.787Z,56.53
2018-02-08T19:10:41.227Z,59.93
2018-02-08T19:13:08.663Z,61.97
2018-02-08T19:15:36.103Z,67.63
2018-02-08T19:18:03.544Z,71.37
2018-02-08T19:20:31.759Z,57.50
2018-02-08T19:22:59.187Z,64.23
2018-02-08T19:25:27.394Z,66.53
2018-02-08T19:27:54.827Z,65.10
2018-02-08T19:30:22.276Z,58.03
2018-02-08T19:32:49.706Z,62.43
2018-02-08T19:35:17.148Z,51.37
2018-02-08T19:37:44.582Z,58.10
2018-02-08T19:40:12.025Z,54.03
2018-02-08T19:42:39.468Z,60.30
2018-02-08T19:45:07.679Z,61.70
2018-02-08T19:47:35.106Z,62.07
2018-02-08T19:50:02.543Z,58.13
2018-02-08T19:52:29.979Z,55.53
2018-02-08T19:54:57.416Z,59.03
2018-02-08T19:57:24.976Z,59.50
2018-02-08T19:59:53.156Z,52.07
2018-02-08T20:02:20.595Z,59.43
2018-02-08T20:04:48.040Z,58.30
2018-02-08T20:07:16.246Z,61.27
2018-02-08T20:09:43.682Z,52.43
2018-02-08T20:12:11.127Z,61.07
2018-02-08T20:14:41.047Z,63.13
2018-02-08T20:17:08.491Z,64.77
2018-02-08T20:19:36.012Z,54.97
2018-02-08T20:22:04.214Z,62.80
2018-02-08T20:24:31.659Z,62.40
2018-02-08T20:26:59.098Z,56.57
2018-02-08T20:29:26.543Z,51.43
2018-02-08T20:31:54.751Z,59.10
2018-02-08T20:34:22.954Z,60.13
2018-02-08T20:36:50.401Z,66.23
2018-02-08T20:39:17.838Z,61.20
2018-02-08T20:41:45.278Z,63.67
2018-02-08T20:44:13.479Z,63.03
2018-02-08T20:46:41.695Z,67.33
2018-02-08T20:49:09.894Z,66.13
2018-02-08T20:51:37.396Z,62.27
2018-02-08T20:54:04.827Z,59.07
2018-02-08T20:56:32.258Z,72.47
2018-02-08T20:58:59.702Z,59.03
2018-02-08T21:01:27.903Z,62.40
2018-02-08T21:03:56.111Z,63.60
2018-02-08T21:06:24.315Z,74.50
2018-02-08T21:08:52.523Z,53.80
2018-02-08T21:11:20.720Z,56.70
2018-02-08T21:13:48.927Z,63.07
2018-02-08T21:16:16.389Z,76.20
2018-02-08T21:18:43.794Z,80.87
2018-02-08T21:21:11.231Z,90.97
2018-02-08T21:23:38.670Z,88.57
2018-02-08T21:26:06.109Z,70.20
2018-02-08T21:28:33.550Z,56.20
2018-02-08T21:31:00.991Z,63.50
2018-02-08T21:33:29.199Z,67.50
2018-02-08T21:35:57.404Z,59.80
2018-02-08T21:38:24.842Z,58.90
2018-02-08T21:40:52.283Z,57.90
2018-02-08T21:43:19.727Z,66.57
2018-02-08T21:45:47.931Z,67.63
2018-02-08T21:48:16.143Z,73.63
2018-02-08T21:50:43.591Z,73.27
2018-02-08T21:53:11.079Z,70.33
2018-02-08T21:55:38.527Z,64.90
2018-02-08T21:58:05.959Z,71.43
2018-02-08T22:00:34.172Z,65.13
2018-02-08T22:03:01.611Z,59.13
2018-02-08T22:05:29.046Z,72.40
2018-02-08T22:07:56.484Z,68.37
2018-02-08T22:10:23.919Z,73.10
2018-02-08T22:12:51.358Z,66.87
2018-02-08T22:15:19.571Z,63.63
2018-02-08T22:17:47.010Z,60.00
2018-02-08T22:20:14.454Z,60.37
2018-02-08T22:22:41.894Z,59.47
2018-02-08T22:25:10.103Z,75.17
2018-02-08T22:27:38.303Z,70.23
2018-02-08T22:30:05.753Z,67.67
2018-02-08T22:32:33.191Z,72.93
2018-02-08T22:35:00.638Z,61.07
2018-02-08T22:37:28.843Z,71.07
2018-02-08T22:39:56.283Z,66.37
2018-02-08T22:42:23.723Z,60.73
2018-02-08T22:44:51.174Z,69.43
2018-02-08T22:47:19.371Z,68.80
2018-02-08T22:49:47.574Z,64.13
2018-02-08T22:52:15.780Z,70.30
2018-02-08T22:54:43.988Z,59.17
2018-02-08T22:57:11.422Z,67.63
2018-02-08T22:59:38.871Z,59.00
2018-02-08T23:02:06.302Z,66.33
2018-02-08T23:04:33.738Z,62.20
2018-02-08T23:07:01.183Z,65.13
2018-02-08T23:09:28.618Z,61.33
2018-02-08T23:11:56.076Z,64.50
2018-02-08T23:14:23.511Z,67.77
2018-02-08T23:16:51.719Z,67.90
2018-02-08T23:19:19.919Z,64.77
2018-02-08T23:21:47.362Z,69.73
2018-02-08T23:24:14.798Z,70.03
2018-02-08T23:26:42.259Z,69.13
2018-02-08T23:29:10.455Z,61.17
2018-02-08T23:31:38.659Z,80.63
2018-02-08T23:34:06.099Z,68.43
2018-02-08T23:36:33.547Z,66.50
2018-02-08T23:39:00.992Z,67.53
2018-02-08T23:41:28.436Z,60.17
2018-02-08T23:43:55.869Z,60.50
2018-02-08T23:46:23.315Z,70.10
2018-02-08T23:48:50.746Z,68.67
2018-02-08T23:51:18.190Z,71.23
2018-02-08T23:53:46.382Z,59.07
2018-02-08T23:56:14.586Z,53.57
2018-02-08T23:58:42.793Z,62.57
